Aura, New Jersey
Current Conditions -  °F | °C
As of 6:17 AM on Wednesday 26 Nov 2014 (Local Time) from KPHL Reporting Station
Light Rain Light Rain  
Wind Chill: 42°   Ceiling: 3800
Heat Index: 45°   Visibility: 8mi
Dew Point: 36°   Wind: 6mph
Humidity: 71%   Direction: 40°NE
Pressure: 30.12"   Gusts: NA
Location:  39.6996°N, 75.1187°W
Report Text: KPHL 261117Z 04005KT 8SM -RA SCT016 BKN038 OVC050 07/02 A3012 RMK AO2 P0001 T00720022 $
Loading
Personal Weather Stations






























Interactive Weather Map New forecast layout! Learn more

10-Day Weather Forecast

Advertisements
Track Severe Weather on mobile